createdAt,value
2018-04-07T00:00:29.944Z,31.40
2018-04-07T00:01:29.930Z,31.21
2018-04-07T00:02:29.939Z,31.49
2018-04-07T00:03:29.934Z,30.82
2018-04-07T00:04:29.917Z,31.21
2018-04-07T00:05:29.916Z,31.11
2018-04-07T00:06:29.910Z,30.90
2018-04-07T00:07:29.895Z,31.11
2018-04-07T00:08:29.882Z,31.11
2018-04-07T00:09:29.895Z,31.49
2018-04-07T00:10:29.885Z,31.11
2018-04-07T00:11:29.875Z,30.91
2018-04-07T00:12:29.874Z,31.21
2018-04-07T00:13:29.866Z,31.01
2018-04-07T00:14:29.865Z,31.01
2018-04-07T00:15:29.854Z,30.91
2018-04-07T00:16:29.867Z,31.11
2018-04-07T00:17:29.850Z,31.21
2018-04-07T00:18:29.839Z,31.19
2018-04-07T00:19:29.856Z,31.30
2018-04-07T00:20:29.830Z,30.91
2018-04-07T00:21:29.825Z,31.40
2018-04-07T00:22:29.829Z,31.30
2018-04-07T00:23:29.837Z,30.91
2018-04-07T00:24:29.801Z,31.40
2018-04-07T00:25:29.820Z,31.00
2018-04-07T00:26:29.801Z,30.82
2018-04-07T00:27:29.809Z,30.73
2018-04-07T00:28:29.787Z,31.01
2018-04-07T00:29:29.780Z,31.01
2018-04-07T00:30:29.777Z,31.01
2018-04-07T00:31:29.783Z,30.82
2018-04-07T00:32:29.769Z,31.30
2018-04-07T00:33:29.757Z,30.91
2018-04-07T00:34:29.748Z,30.82
2018-04-07T00:35:29.749Z,30.34
2018-04-07T00:36:29.771Z,30.43
2018-04-07T00:37:29.750Z,30.34
2018-04-07T00:38:29.740Z,30.24
2018-04-07T00:39:29.728Z,30.91
2018-04-07T00:40:29.734Z,30.43
2018-04-07T00:41:29.712Z,30.82
2018-04-07T00:42:29.723Z,30.91
2018-04-07T00:43:29.720Z,30.73
2018-04-07T00:44:29.705Z,31.01
2018-04-07T00:45:29.697Z,31.21
2018-04-07T00:46:29.695Z,31.01
2018-04-07T00:47:29.693Z,30.63
2018-04-07T00:48:29.682Z,30.53
2018-04-07T00:49:29.678Z,30.42
2018-04-07T00:50:29.671Z,30.91
2018-04-07T00:51:29.683Z,31.21
2018-04-07T00:52:29.671Z,30.34
2018-04-07T00:53:29.674Z,30.34
2018-04-07T00:54:29.650Z,31.01
2018-04-07T00:55:29.655Z,30.90
2018-04-07T00:56:29.642Z,31.09
2018-04-07T00:57:29.636Z,30.34
2018-04-07T00:58:29.626Z,30.34
2018-04-07T00:59:29.633Z,30.43
2018-04-07T01:00:29.645Z,30.43
2018-04-07T01:01:29.607Z,30.53
2018-04-07T01:02:29.612Z,30.91
2018-04-07T01:03:29.598Z,30.24
2018-04-07T01:04:29.610Z,31.11
2018-04-07T01:05:29.595Z,30.32
2018-04-07T01:06:29.611Z,31.21
2018-04-07T01:07:29.587Z,31.11
2018-04-07T01:08:29.581Z,31.01
2018-04-07T01:09:29.579Z,30.91
2018-04-07T01:10:29.570Z,30.71
2018-04-07T01:11:29.574Z,30.91
2018-04-07T01:12:29.567Z,31.11
2018-04-07T01:13:29.563Z,30.82
2018-04-07T01:14:29.541Z,31.40
2018-04-07T01:15:29.537Z,31.01
2018-04-07T01:16:29.537Z,31.01
2018-04-07T01:17:29.544Z,30.91
2018-04-07T01:18:29.521Z,30.90
2018-04-07T01:19:29.517Z,30.91
2018-04-07T01:20:29.527Z,31.01
2018-04-07T01:21:29.518Z,31.40
2018-04-07T01:22:29.510Z,31.11
2018-04-07T01:23:29.502Z,31.30
2018-04-07T01:24:29.500Z,31.21
2018-04-07T01:25:29.491Z,31.40
2018-04-07T01:26:29.478Z,31.21
2018-04-07T01:27:29.479Z,31.11
2018-04-07T01:28:29.466Z,31.09
2018-04-07T01:29:29.468Z,31.01
2018-04-07T01:30:29.457Z,31.21
2018-04-07T01:31:29.455Z,31.09
2018-04-07T01:32:29.448Z,31.01
2018-04-07T01:33:29.466Z,31.09
2018-04-07T01:34:29.453Z,31.49
2018-04-07T01:35:29.442Z,31.29
2018-04-07T01:36:29.462Z,31.21
2018-04-07T01:37:29.424Z,31.09
2018-04-07T01:38:29.427Z,31.01
2018-04-07T01:39:29.419Z,31.57
2018-04-07T01:40:29.407Z,31.21
2018-04-07T01:41:29.421Z,31.21
2018-04-07T01:42:29.411Z,31.59
2018-04-07T01:43:29.398Z,31.11
2018-04-07T01:44:29.402Z,31.40
2018-04-07T01:45:29.392Z,31.21
2018-04-07T01:46:29.401Z,31.11
2018-04-07T01:47:29.371Z,31.11
2018-04-07T01:48:29.388Z,31.11
2018-04-07T01:49:29.393Z,31.29
2018-04-07T01:50:29.377Z,31.11
2018-04-07T01:51:29.352Z,30.91
2018-04-07T01:52:29.360Z,31.21
2018-04-07T01:53:29.338Z,31.30
2018-04-07T01:54:29.336Z,31.11
2018-04-07T01:55:29.334Z,31.21
2018-04-07T01:56:29.335Z,31.40
2018-04-07T01:57:29.320Z,31.21
2018-04-07T01:58:29.331Z,31.40
2018-04-07T01:59:29.323Z,31.69
2018-04-07T02:00:29.312Z,31.30
2018-04-07T02:01:29.302Z,31.49
2018-04-07T02:02:29.297Z,31.59
2018-04-07T02:03:29.289Z,31.11
2018-04-07T02:04:29.279Z,31.21
2018-04-07T02:05:29.272Z,31.49
2018-04-07T02:06:29.315Z,31.49
2018-04-07T02:07:29.282Z,31.21
2018-04-07T02:08:29.264Z,31.21
2018-04-07T02:09:29.261Z,31.21
2018-04-07T02:10:29.243Z,31.21
2018-04-07T02:11:29.248Z,31.11
2018-04-07T02:12:29.241Z,31.59
2018-04-07T02:13:29.240Z,31.49
2018-04-07T02:14:29.228Z,31.21
2018-04-07T02:15:29.226Z,31.11
2018-04-07T02:16:29.219Z,31.01
2018-04-07T02:17:29.219Z,31.11
2018-04-07T02:18:29.224Z,31.11
2018-04-07T02:19:29.208Z,31.40
2018-04-07T02:20:29.201Z,31.49
2018-04-07T02:21:29.182Z,31.59
2018-04-07T02:22:29.187Z,31.59
2018-04-07T02:23:29.191Z,31.49
2018-04-07T02:24:29.182Z,31.30
2018-04-07T02:25:29.192Z,31.40
2018-04-07T02:26:29.182Z,31.11
2018-04-07T02:27:29.167Z,31.21
2018-04-07T02:28:29.156Z,31.30
2018-04-07T02:29:29.168Z,31.30
2018-04-07T02:30:29.154Z,31.11
2018-04-07T02:31:29.138Z,31.21
2018-04-07T02:32:29.129Z,31.11
2018-04-07T02:33:29.134Z,31.21
2018-04-07T02:34:29.137Z,31.01
2018-04-07T02:35:29.119Z,31.21
2018-04-07T02:36:29.113Z,31.30
2018-04-07T02:37:29.118Z,31.40
2018-04-07T02:38:29.118Z,31.69
2018-04-07T02:39:29.100Z,31.69
2018-04-07T02:40:29.109Z,31.01
2018-04-07T02:41:29.090Z,31.11
2018-04-07T02:42:29.142Z,31.21
2018-04-07T02:43:29.079Z,31.30
2018-04-07T02:44:29.069Z,31.11
2018-04-07T02:45:29.073Z,31.21
2018-04-07T02:46:29.058Z,31.11
2018-04-07T02:47:29.067Z,31.11
2018-04-07T02:48:29.063Z,31.11
2018-04-07T02:49:29.054Z,31.11
2018-04-07T02:50:29.039Z,31.19
2018-04-07T02:51:29.037Z,31.40
2018-04-07T02:52:29.020Z,31.11
2018-04-07T02:53:29.038Z,31.49
2018-04-07T02:54:29.029Z,31.30
2018-04-07T02:55:29.017Z,31.59
2018-04-07T02:56:29.013Z,31.40
2018-04-07T02:57:29.020Z,31.21
2018-04-07T02:58:29.000Z,31.30
2018-04-07T02:59:28.995Z,31.49
2018-04-07T03:00:28.989Z,31.19
2018-04-07T03:01:28.984Z,31.59
2018-04-07T03:02:28.980Z,31.30
2018-04-07T03:03:28.980Z,31.49
2018-04-07T03:04:28.972Z,31.49
2018-04-07T03:05:28.973Z,31.48
2018-04-07T03:06:28.967Z,31.21
2018-04-07T03:07:28.953Z,31.59
2018-04-07T03:08:28.945Z,31.21
2018-04-07T03:09:28.951Z,31.29
2018-04-07T03:10:28.945Z,31.30
2018-04-07T03:11:28.942Z,31.38
2018-04-07T03:12:28.938Z,31.40
2018-04-07T03:13:28.929Z,31.21
2018-04-07T03:14:28.918Z,31.40
2018-04-07T03:15:28.921Z,31.21
2018-04-07T03:16:28.914Z,31.21
2018-04-07T03:17:28.899Z,31.40
2018-04-07T03:18:28.894Z,31.30
2018-04-07T03:19:28.889Z,31.29
2018-04-07T03:20:28.895Z,31.57
2018-04-07T03:21:28.893Z,31.38
2018-04-07T03:22:28.884Z,31.59
2018-04-07T03:23:28.872Z,31.49
2018-04-07T03:24:28.870Z,31.59
2018-04-07T03:25:28.863Z,31.59
2018-04-07T03:26:28.856Z,31.57
2018-04-07T03:27:28.845Z,31.40
2018-04-07T03:28:28.843Z,31.40
2018-04-07T03:29:28.843Z,31.98
2018-04-07T03:30:28.831Z,31.59
2018-04-07T03:31:28.830Z,31.59
2018-04-07T03:32:28.825Z,31.59
2018-04-07T03:33:28.810Z,31.57
2018-04-07T03:34:28.824Z,31.40
2018-04-07T03:35:28.805Z,31.59
2018-04-07T03:36:28.800Z,31.67
2018-04-07T03:37:28.797Z,31.69
2018-04-07T03:38:28.798Z,31.67
2018-04-07T03:39:28.794Z,31.77
2018-04-07T03:40:28.789Z,31.59
2018-04-07T03:41:28.787Z,31.38
2018-04-07T03:42:28.779Z,31.59
2018-04-07T03:43:28.763Z,31.57
2018-04-07T03:44:28.759Z,31.67
2018-04-07T03:45:28.763Z,31.77
2018-04-07T03:46:28.750Z,31.59
2018-04-07T03:47:28.759Z,31.67
2018-04-07T03:48:28.734Z,31.38
2018-04-07T03:49:28.731Z,31.49
2018-04-07T03:50:28.750Z,31.48
2018-04-07T03:51:28.724Z,31.69
2018-04-07T03:52:28.718Z,31.59
2018-04-07T03:53:28.706Z,31.38
2018-04-07T03:54:28.708Z,31.59
2018-04-07T03:55:28.703Z,31.49
2018-04-07T03:56:28.700Z,31.59
2018-04-07T03:57:28.689Z,31.59
2018-04-07T03:58:28.697Z,31.49
2018-04-07T03:59:28.684Z,31.69
2018-04-07T04:00:28.675Z,31.78
2018-04-07T04:01:28.671Z,31.77
2018-04-07T04:02:28.668Z,31.98
2018-04-07T04:03:28.658Z,31.88
2018-04-07T04:04:28.660Z,31.69
2018-04-07T04:05:28.639Z,31.88
2018-04-07T04:06:28.645Z,31.88
2018-04-07T04:07:28.646Z,31.98
2018-04-07T04:08:28.634Z,31.88
2018-04-07T04:09:28.630Z,31.88
2018-04-07T04:10:28.619Z,32.07
2018-04-07T04:11:28.621Z,32.07
2018-04-07T04:12:28.603Z,31.78
2018-04-07T04:13:28.618Z,31.69
2018-04-07T04:14:28.599Z,31.98
2018-04-07T04:15:28.601Z,31.98
2018-04-07T04:16:28.593Z,31.59
2018-04-07T04:17:28.583Z,31.98
2018-04-07T04:18:28.583Z,32.07
2018-04-07T04:19:28.580Z,32.17
2018-04-07T04:20:28.569Z,32.07
2018-04-07T04:21:28.565Z,32.17
2018-04-07T04:22:28.564Z,31.98
2018-04-07T04:23:28.558Z,31.69
2018-04-07T04:24:28.551Z,31.88
2018-04-07T04:25:28.543Z,31.59
2018-04-07T04:26:28.552Z,31.88
2018-04-07T04:27:28.538Z,32.07
2018-04-07T04:28:28.526Z,32.07
2018-04-07T04:29:28.525Z,31.78
2018-04-07T04:30:28.537Z,32.26
2018-04-07T04:31:28.514Z,32.26
2018-04-07T04:32:28.510Z,32.07
2018-04-07T04:33:28.505Z,32.07
2018-04-07T04:34:28.497Z,32.17
2018-04-07T04:35:28.494Z,31.88
2018-04-07T04:36:28.493Z,31.78
2018-04-07T04:37:28.490Z,31.78
2018-04-07T04:38:28.495Z,31.98
2018-04-07T04:39:28.471Z,31.98
2018-04-07T04:40:28.469Z,31.98
2018-04-07T04:41:28.457Z,32.07
2018-04-07T04:42:28.467Z,31.98
2018-04-07T04:43:28.462Z,31.88
2018-04-07T04:44:28.462Z,31.78
2018-04-07T04:45:28.440Z,31.96
2018-04-07T04:46:28.436Z,31.87
2018-04-07T04:47:28.446Z,32.17
2018-04-07T04:48:28.421Z,31.78
2018-04-07T04:49:28.420Z,32.25
2018-04-07T04:50:28.412Z,31.78
2018-04-07T04:51:28.411Z,32.26
2018-04-07T04:52:28.404Z,32.07
2018-04-07T04:53:28.394Z,32.07
2018-04-07T04:54:28.396Z,32.17
2018-04-07T04:55:28.389Z,32.17
2018-04-07T04:56:28.381Z,32.26
2018-04-07T04:57:28.371Z,32.07
2018-04-07T04:58:28.382Z,32.17
2018-04-07T04:59:28.371Z,31.88
2018-04-07T05:00:28.370Z,31.87
2018-04-07T05:01:28.369Z,32.07
2018-04-07T05:02:28.349Z,32.07
2018-04-07T05:03:28.351Z,31.78
2018-04-07T05:04:28.346Z,31.98
2018-04-07T05:05:28.336Z,31.87
2018-04-07T05:06:28.329Z,31.88
2018-04-07T05:07:28.326Z,31.88
2018-04-07T05:08:28.313Z,31.98
2018-04-07T05:09:28.319Z,31.69
2018-04-07T05:10:28.330Z,31.69
2018-04-07T05:11:28.306Z,32.17
2018-04-07T05:12:28.325Z,31.69
2018-04-07T05:13:28.295Z,31.59
2018-04-07T05:14:28.292Z,31.78
2018-04-07T05:15:28.281Z,32.06
2018-04-07T05:16:28.289Z,31.77
2018-04-07T05:17:28.292Z,31.69
2018-04-07T05:18:28.282Z,31.88
2018-04-07T05:19:28.264Z,31.88
2018-04-07T05:20:28.255Z,31.67
2018-04-07T05:21:28.251Z,31.78
2018-04-07T05:22:28.242Z,31.78
2018-04-07T05:23:28.241Z,31.59
2018-04-07T05:24:28.233Z,31.59
2018-04-07T05:25:28.228Z,31.78
2018-04-07T05:26:28.227Z,31.59
2018-04-07T05:27:28.221Z,31.67
2018-04-07T05:28:28.216Z,31.69
2018-04-07T05:29:28.202Z,31.48
2018-04-07T05:30:28.202Z,31.78
2018-04-07T05:31:28.210Z,31.59
2018-04-07T05:32:28.182Z,31.98
2018-04-07T05:33:28.187Z,31.78
2018-04-07T05:34:28.179Z,31.88
2018-04-07T05:35:28.180Z,32.06
2018-04-07T05:36:28.166Z,31.88
2018-04-07T05:37:28.160Z,31.67
2018-04-07T05:38:28.158Z,31.88
2018-04-07T05:39:28.157Z,31.78
2018-04-07T05:40:28.152Z,31.78
2018-04-07T05:41:28.156Z,31.78
2018-04-07T05:42:28.140Z,31.59
2018-04-07T05:43:28.137Z,31.69
2018-04-07T05:44:28.140Z,31.57
2018-04-07T05:45:28.126Z,31.49
2018-04-07T05:46:28.122Z,31.49
2018-04-07T05:47:28.112Z,31.59
2018-04-07T05:48:28.112Z,31.48
2018-04-07T05:49:28.106Z,31.49
2018-04-07T05:50:28.106Z,31.69
2018-04-07T05:51:28.097Z,31.59
2018-04-07T05:52:28.082Z,31.21
2018-04-07T05:53:28.082Z,31.40
2018-04-07T05:54:28.073Z,31.49
2018-04-07T05:55:28.068Z,31.59
2018-04-07T05:56:28.071Z,31.40
2018-04-07T05:57:28.090Z,31.30
2018-04-07T05:58:28.056Z,31.40
2018-04-07T05:59:28.049Z,31.40
2018-04-07T06:00:28.062Z,31.49
2018-04-07T06:01:28.042Z,31.30
2018-04-07T06:02:28.040Z,31.30
2018-04-07T06:03:28.030Z,31.49
2018-04-07T06:04:28.038Z,31.30
2018-04-07T06:05:28.016Z,31.40
2018-04-07T06:06:28.008Z,31.49
2018-04-07T06:07:28.008Z,31.49
2018-04-07T06:08:28.006Z,31.30
2018-04-07T06:09:28.007Z,31.49
2018-04-07T06:10:28.005Z,31.11
2018-04-07T06:11:27.997Z,31.11
2018-04-07T06:12:27.992Z,31.11
2018-04-07T06:13:27.976Z,31.59
2018-04-07T06:14:27.961Z,31.30
2018-04-07T06:15:27.966Z,30.91
2018-04-07T06:16:27.968Z,31.21
2018-04-07T06:17:27.953Z,31.21
2018-04-07T06:18:27.964Z,30.91
2018-04-07T06:19:27.950Z,30.91
2018-04-07T06:20:27.958Z,31.03
2018-04-07T06:21:27.950Z,30.34
2018-04-07T06:22:27.933Z,30.74
2018-04-07T06:23:27.917Z,30.64
2018-04-07T06:24:27.924Z,30.64
2018-04-07T06:25:27.911Z,29.97
2018-04-07T06:26:27.912Z,30.16
2018-04-07T06:27:27.920Z,29.97
2018-04-07T06:28:27.898Z,30.16
2018-04-07T06:29:27.892Z,30.07
2018-04-07T06:30:27.901Z,30.16
2018-04-07T06:31:27.892Z,29.97
2018-04-07T06:32:27.877Z,30.07
2018-04-07T06:33:27.878Z,30.07
2018-04-07T06:34:27.866Z,29.97
2018-04-07T06:35:27.872Z,30.16
2018-04-07T06:36:27.852Z,29.97
2018-04-07T06:37:27.854Z,30.26
2018-04-07T06:38:27.847Z,30.18
2018-04-07T06:39:27.842Z,30.27
2018-04-07T06:40:27.847Z,30.35
2018-04-07T06:41:27.847Z,30.56
2018-04-07T06:42:27.828Z,29.89
2018-04-07T06:43:27.824Z,30.27
2018-04-07T06:44:27.817Z,30.27
2018-04-07T06:45:27.813Z,29.89
2018-04-07T06:46:27.819Z,30.37
2018-04-07T06:47:27.803Z,30.27
2018-04-07T06:48:27.813Z,30.08
2018-04-07T06:49:27.792Z,29.98
2018-04-07T06:50:27.787Z,30.00
2018-04-07T06:51:27.790Z,30.08
2018-04-07T06:52:27.781Z,29.79
2018-04-07T06:53:27.771Z,29.52
2018-04-07T06:54:27.787Z,29.89
2018-04-07T06:55:27.764Z,29.69
2018-04-07T06:56:27.769Z,29.90
2018-04-07T06:57:27.758Z,29.80
2018-04-07T06:58:27.756Z,29.89
2018-04-07T06:59:27.741Z,29.98
2018-04-07T07:00:27.741Z,29.79
2018-04-07T07:01:27.731Z,29.89
2018-04-07T07:02:27.729Z,30.18
2018-04-07T07:03:27.738Z,29.98
2018-04-07T07:04:27.725Z,29.89
2018-04-07T07:05:27.712Z,29.79
2018-04-07T07:06:27.777Z,30.10
2018-04-07T07:07:27.713Z,29.98
2018-04-07T07:08:27.704Z,29.89
2018-04-07T07:09:27.697Z,29.98
2018-04-07T07:10:27.737Z,30.00
2018-04-07T07:11:27.687Z,30.00
2018-04-07T07:12:27.696Z,30.10
2018-04-07T07:13:27.682Z,30.18
2018-04-07T07:14:27.662Z,30.00
2018-04-07T07:15:27.680Z,30.10
2018-04-07T07:16:27.668Z,30.10
2018-04-07T07:17:27.704Z,30.00
2018-04-07T07:18:27.652Z,30.00
2018-04-07T07:19:27.665Z,30.00
2018-04-07T07:20:27.656Z,29.90
2018-04-07T07:21:27.646Z,30.00
2018-04-07T07:22:27.649Z,29.80
2018-04-07T07:23:27.627Z,30.10
2018-04-07T07:24:27.615Z,30.00
2018-04-07T07:25:27.618Z,29.90
2018-04-07T07:26:27.611Z,29.90
2018-04-07T07:27:27.628Z,30.00
2018-04-07T07:28:27.611Z,30.19
2018-04-07T07:29:27.595Z,30.10
2018-04-07T07:30:27.591Z,30.38
2018-04-07T07:31:27.596Z,30.29
2018-04-07T07:32:27.598Z,30.00
2018-04-07T07:33:27.580Z,30.00
2018-04-07T07:34:27.581Z,29.90
2018-04-07T07:35:27.591Z,30.00
2018-04-07T07:36:27.573Z,29.80
2018-04-07T07:37:27.567Z,30.10
2018-04-07T07:38:27.553Z,30.00
2018-04-07T07:39:27.564Z,30.00
2018-04-07T07:40:27.540Z,30.00
2018-04-07T07:41:27.543Z,29.90
2018-04-07T07:42:27.537Z,30.10
2018-04-07T07:43:27.522Z,30.19
2018-04-07T07:44:27.546Z,30.00
2018-04-07T07:45:27.517Z,30.01
2018-04-07T07:46:27.553Z,29.90
2018-04-07T07:47:27.561Z,30.11
2018-04-07T07:48:27.515Z,30.01
2018-04-07T07:49:27.531Z,30.11
2018-04-07T07:50:27.500Z,30.01
2018-04-07T07:51:27.500Z,30.30
2018-04-07T07:52:27.514Z,30.30
2018-04-07T07:53:27.494Z,30.49
2018-04-07T07:54:27.489Z,30.01
2018-04-07T07:55:27.482Z,30.30
2018-04-07T07:56:27.491Z,30.30
2018-04-07T07:57:27.472Z,30.01
2018-04-07T07:58:27.559Z,30.11
2018-04-07T07:59:27.507Z,29.82
2018-04-07T08:00:27.449Z,30.21
2018-04-07T08:01:27.460Z,30.21
2018-04-07T08:02:27.442Z,30.30
2018-04-07T08:03:27.444Z,30.40
2018-04-07T08:04:27.435Z,30.21
2018-04-07T08:05:27.435Z,30.30
2018-04-07T08:06:27.432Z,30.30
2018-04-07T08:07:27.419Z,30.40
2018-04-07T08:08:27.443Z,30.59
2018-04-07T08:09:27.420Z,30.30
2018-04-07T08:10:27.422Z,30.21
2018-04-07T08:11:27.404Z,29.91
2018-04-07T08:12:27.399Z,30.01
2018-04-07T08:13:27.403Z,30.11
2018-04-07T08:14:27.394Z,30.21
2018-04-07T08:15:27.398Z,30.01
2018-04-07T08:16:27.392Z,30.11
2018-04-07T08:17:27.380Z,30.11
2018-04-07T08:18:27.378Z,30.21
2018-04-07T08:19:27.382Z,29.91
2018-04-07T08:20:27.359Z,30.11
2018-04-07T08:21:27.363Z,30.01
2018-04-07T08:22:27.360Z,30.21
2018-04-07T08:23:27.374Z,30.11
2018-04-07T08:24:27.341Z,29.93
2018-04-07T08:25:27.341Z,29.82
2018-04-07T08:26:27.336Z,30.12
2018-04-07T08:27:27.354Z,30.01
2018-04-07T08:28:27.340Z,30.03
2018-04-07T08:29:27.329Z,30.03
2018-04-07T08:30:27.320Z,30.01
2018-04-07T08:31:27.318Z,29.93
2018-04-07T08:32:27.312Z,30.03
2018-04-07T08:33:27.310Z,30.01
2018-04-07T08:34:27.305Z,30.01
2018-04-07T08:35:27.304Z,30.03
2018-04-07T08:36:27.299Z,30.21
2018-04-07T08:37:27.299Z,29.45
2018-04-07T08:38:27.290Z,30.21
2018-04-07T08:39:27.352Z,30.11
2018-04-07T08:40:27.284Z,30.12
2018-04-07T08:41:27.294Z,30.03
2018-04-07T08:42:27.293Z,30.32
2018-04-07T08:43:27.307Z,30.03
2018-04-07T08:44:27.265Z,30.41
2018-04-07T08:45:27.359Z,31.17
2018-04-07T08:46:27.253Z,32.33
2018-04-07T08:47:27.244Z,32.43
2018-04-07T08:48:27.252Z,32.52
2018-04-07T08:49:27.245Z,32.71
2018-04-07T08:50:27.228Z,32.43
2018-04-07T08:51:27.244Z,32.04
2018-04-07T08:52:27.224Z,32.33
2018-04-07T08:53:27.227Z,32.04
2018-04-07T08:54:27.259Z,32.71
2018-04-07T08:55:27.224Z,32.71
2018-04-07T08:56:27.219Z,32.81
2018-04-07T08:57:27.210Z,32.52
2018-04-07T08:58:27.203Z,32.23
2018-04-07T08:59:27.205Z,32.23
2018-04-07T09:00:27.207Z,31.94
2018-04-07T09:01:27.194Z,31.75
2018-04-07T09:02:27.173Z,32.23
2018-04-07T09:03:27.183Z,32.23
2018-04-07T09:04:27.175Z,31.94
2018-04-07T09:05:27.199Z,32.43
2018-04-07T09:06:27.186Z,32.14
2018-04-07T09:07:27.180Z,31.85
2018-04-07T09:08:27.149Z,32.04
2018-04-07T09:09:27.173Z,31.94
2018-04-07T09:10:27.164Z,31.94
2018-04-07T09:11:27.157Z,31.75
2018-04-07T09:12:27.157Z,32.04
2018-04-07T09:13:27.134Z,31.94
2018-04-07T09:14:27.135Z,31.85
2018-04-07T09:15:27.146Z,31.94
2018-04-07T09:16:27.133Z,31.75
2018-04-07T09:17:27.119Z,31.85
2018-04-07T09:18:27.141Z,31.94
2018-04-07T09:19:27.134Z,31.94
2018-04-07T09:20:27.109Z,31.94
2018-04-07T09:21:27.106Z,31.85
2018-04-07T09:22:27.108Z,31.85
2018-04-07T09:23:27.101Z,31.85
2018-04-07T09:24:27.093Z,31.94
2018-04-07T09:25:27.095Z,31.94
2018-04-07T09:26:27.084Z,32.81
2018-04-07T09:27:27.081Z,32.23
2018-04-07T09:28:27.079Z,32.23
2018-04-07T09:29:27.082Z,31.94
2018-04-07T09:30:27.074Z,31.94
2018-04-07T09:31:27.065Z,31.85
2018-04-07T09:32:27.077Z,32.14
2018-04-07T09:33:27.060Z,32.23
2018-04-07T09:34:27.070Z,32.23
2018-04-07T09:35:27.064Z,32.14
2018-04-07T09:36:27.052Z,32.14
2018-04-07T09:37:27.074Z,32.14
2018-04-07T09:38:27.040Z,31.94
2018-04-07T09:39:27.040Z,32.14
2018-04-07T09:40:27.032Z,31.75
2018-04-07T09:41:27.038Z,32.04
2018-04-07T09:42:27.029Z,32.04
2018-04-07T09:43:27.010Z,32.14
2018-04-07T09:44:27.003Z,32.04
2018-04-07T09:45:27.009Z,31.75
2018-04-07T09:46:27.009Z,32.14
2018-04-07T09:47:27.021Z,32.14
2018-04-07T09:48:26.985Z,31.94
2018-04-07T09:49:27.000Z,31.75
2018-04-07T09:50:27.002Z,31.94
2018-04-07T09:51:26.987Z,32.23
2018-04-07T09:52:26.981Z,32.62
2018-04-07T09:53:26.998Z,32.23
2018-04-07T09:54:26.975Z,32.23
2018-04-07T09:55:26.992Z,32.52
2018-04-07T09:56:26.964Z,32.04
2018-04-07T09:57:26.980Z,31.94
2018-04-07T09:58:26.975Z,31.85
2018-04-07T09:59:26.953Z,31.94
2018-04-07T10:00:26.946Z,32.23
2018-04-07T10:01:26.942Z,31.85
2018-04-07T10:02:26.933Z,31.75
2018-04-07T10:03:26.936Z,31.75
2018-04-07T10:04:26.944Z,32.62
2018-04-07T10:05:26.935Z,32.33
2018-04-07T10:06:26.945Z,32.23
2018-04-07T10:07:26.909Z,32.62
2018-04-07T10:08:26.923Z,32.43
2018-04-07T10:09:26.916Z,32.33
2018-04-07T10:10:26.921Z,32.33
2018-04-07T10:11:26.907Z,32.33
2018-04-07T10:12:26.895Z,32.33
2018-04-07T10:13:26.887Z,32.33
2018-04-07T10:14:26.885Z,32.33
2018-04-07T10:15:26.887Z,32.23
2018-04-07T10:16:26.878Z,32.33
2018-04-07T10:17:26.888Z,32.43
2018-04-07T10:18:26.882Z,32.62
2018-04-07T10:19:26.874Z,32.43
2018-04-07T10:20:26.896Z,32.23
2018-04-07T10:21:26.868Z,32.23
2018-04-07T10:22:26.856Z,32.23
2018-04-07T10:23:26.912Z,32.23
2018-04-07T10:24:26.866Z,32.33
2018-04-07T10:25:26.845Z,32.91
2018-04-07T10:26:26.841Z,32.91
2018-04-07T10:27:26.844Z,32.81
2018-04-07T10:28:26.839Z,32.91
2018-04-07T10:29:26.836Z,32.91
2018-04-07T10:30:26.815Z,32.81
2018-04-07T10:31:26.827Z,32.81
2018-04-07T10:32:26.823Z,33.00
2018-04-07T10:33:26.826Z,33.20
2018-04-07T10:34:26.800Z,32.89
2018-04-07T10:35:26.828Z,32.89
2018-04-07T10:36:26.808Z,33.20
2018-04-07T10:37:26.798Z,33.28
2018-04-07T10:38:26.803Z,33.37
2018-04-07T10:39:26.788Z,33.28
2018-04-07T10:40:26.781Z,33.37
2018-04-07T10:41:26.779Z,33.29
2018-04-07T10:42:26.780Z,33.18
2018-04-07T10:43:26.779Z,33.28
2018-04-07T10:44:26.785Z,33.29
2018-04-07T10:45:26.762Z,33.37
2018-04-07T10:46:26.776Z,33.66
2018-04-07T10:47:26.768Z,33.47
2018-04-07T10:48:26.748Z,33.95
2018-04-07T10:49:26.743Z,33.57
2018-04-07T10:50:26.733Z,33.87
2018-04-07T10:51:26.747Z,33.66
2018-04-07T10:52:26.741Z,33.76
2018-04-07T10:53:26.747Z,33.86
2018-04-07T10:54:26.753Z,33.66
2018-04-07T10:55:26.722Z,33.76
2018-04-07T10:56:26.711Z,33.57
2018-04-07T10:57:26.716Z,33.78
2018-04-07T10:58:26.729Z,32.91
2018-04-07T10:59:26.721Z,32.33
2018-04-07T11:00:26.713Z,32.23
2018-04-07T11:01:26.702Z,32.33
2018-04-07T11:02:26.700Z,32.14
2018-04-07T11:03:26.693Z,31.94
2018-04-07T11:04:26.684Z,32.23
2018-04-07T11:05:26.708Z,32.14
2018-04-07T11:06:26.689Z,32.14
2018-04-07T11:07:26.686Z,31.85
2018-04-07T11:08:26.666Z,31.94
2018-04-07T11:09:26.668Z,31.94
2018-04-07T11:10:26.687Z,32.14
2018-04-07T11:11:26.653Z,31.75
2018-04-07T11:12:26.677Z,31.65
2018-04-07T11:13:26.643Z,32.23
2018-04-07T11:14:29.864Z,31.75
2018-04-07T11:15:26.881Z,31.75
2018-04-07T11:16:32.095Z,31.65
2018-04-07T11:17:26.678Z,32.23
2018-04-07T11:18:26.642Z,32.14
2018-04-07T11:19:26.705Z,31.65
2018-04-07T11:20:26.625Z,31.85
2018-04-07T11:21:26.617Z,31.85
2018-04-07T11:22:27.568Z,31.94
2018-04-07T11:23:26.611Z,31.94
2018-04-07T11:24:26.659Z,32.23
2018-04-07T11:25:26.770Z,31.94
2018-04-07T11:27:26.593Z,32.04
2018-04-07T11:28:26.591Z,32.04
2018-04-07T11:29:26.582Z,31.85
2018-04-07T11:30:29.838Z,31.17
2018-04-07T11:31:30.062Z,31.46
2018-04-07T11:32:26.699Z,31.37
2018-04-07T11:33:26.581Z,31.27
2018-04-07T11:34:26.587Z,31.27
2018-04-07T11:35:26.598Z,31.37
2018-04-07T11:36:26.559Z,31.27
2018-04-07T11:37:26.552Z,31.27
2018-04-07T11:38:26.538Z,30.69
2018-04-07T11:39:26.554Z,29.24
2018-04-07T11:40:26.535Z,29.82
2018-04-07T11:41:26.526Z,30.21
2018-04-07T11:42:26.547Z,30.59
2018-04-07T11:43:26.546Z,30.69
2018-04-07T11:44:26.510Z,30.79
2018-04-07T11:45:26.514Z,30.01
2018-04-07T11:46:26.505Z,30.69
2018-04-07T11:47:26.513Z,30.01
2018-04-07T11:48:26.500Z,30.21
2018-04-07T11:49:26.502Z,29.82
2018-04-07T11:50:26.489Z,30.01
2018-04-07T11:51:26.494Z,30.79
2018-04-07T11:52:26.486Z,29.63
2018-04-07T11:53:26.480Z,30.01
2018-04-07T11:54:26.486Z,29.91
2018-04-07T11:55:26.473Z,30.01
2018-04-07T11:56:26.490Z,29.91
2018-04-07T11:57:26.470Z,30.01
2018-04-07T11:58:26.470Z,30.30
2018-04-07T11:59:26.479Z,30.01
2018-04-07T12:00:26.449Z,29.34
2018-04-07T12:01:26.451Z,29.43
2018-04-07T12:02:26.518Z,29.82
2018-04-07T12:03:26.449Z,29.91
2018-04-07T12:04:26.443Z,29.82
2018-04-07T12:05:26.437Z,29.61
2018-04-07T12:06:26.429Z,29.24
2018-04-07T12:07:26.427Z,29.34
2018-04-07T12:08:26.413Z,29.34
2018-04-07T12:09:26.424Z,29.24
2018-04-07T12:10:26.408Z,28.47
2018-04-07T12:11:26.415Z,28.76
2018-04-07T12:12:26.388Z,29.05
2018-04-07T12:13:26.384Z,28.95
2018-04-07T12:14:26.405Z,28.85
2018-04-07T12:15:26.403Z,29.63
2018-04-07T12:16:26.398Z,29.63
2018-04-07T12:17:26.373Z,29.42
2018-04-07T12:18:26.382Z,30.01
2018-04-07T12:19:26.389Z,29.24
2018-04-07T12:20:26.374Z,29.43
2018-04-07T12:21:26.363Z,28.95
2018-04-07T12:22:26.359Z,29.43
2018-04-07T12:23:26.358Z,29.43
2018-04-07T12:24:26.356Z,29.14
2018-04-07T12:25:26.353Z,29.05
2018-04-07T12:26:26.364Z,29.14
2018-04-07T12:27:26.336Z,29.24
2018-04-07T12:28:26.336Z,29.05
2018-04-07T12:29:26.325Z,28.95
2018-04-07T12:30:26.317Z,29.34
2018-04-07T12:31:26.339Z,29.14
2018-04-07T12:32:26.318Z,29.24
2018-04-07T12:33:26.325Z,29.14
2018-04-07T12:34:26.290Z,29.14
2018-04-07T12:35:26.294Z,29.24
2018-04-07T12:36:26.301Z,29.32
2018-04-07T12:37:26.293Z,29.32
2018-04-07T12:38:26.294Z,29.24
2018-04-07T12:39:26.285Z,29.32
2018-04-07T12:40:26.288Z,29.03
2018-04-07T12:41:26.305Z,29.32
2018-04-07T12:42:26.282Z,29.52
2018-04-07T12:43:26.273Z,29.71
2018-04-07T12:44:26.299Z,29.42
2018-04-07T12:45:26.258Z,29.14
2018-04-07T12:46:26.259Z,29.91
2018-04-07T12:47:26.255Z,29.42
2018-04-07T12:48:26.238Z,29.61
2018-04-07T12:49:26.246Z,29.71
2018-04-07T12:50:26.244Z,29.80
2018-04-07T12:51:26.243Z,29.71
2018-04-07T12:52:26.243Z,29.71
2018-04-07T12:53:26.240Z,29.90